Time;durP1;ratioP1;P1;durP2;ratioP2;P2;SDS_P1;SDS_P2;PMS_P1;PMS_P2;Temp;Humidity;BMP_temperature;BMP_pressure;BME280_temperature;BME280_humidity;BME280_pressure;Samples;Min_cycle;Max_cycle;Signal;HPM_P1;HPM_P2
2023/08/09 00:02:19;;;;;;;1.52;1.10;;;17.60;99.90;;;;;;4995936;28;20175;-66
2023/08/09 00:04:45;;;;;;;1.95;0.82;;;17.60;99.90;;;;;;4995587;28;20195;-64
2023/08/09 00:07:10;;;;;;;1.23;1.10;;;17.60;99.90;;;;;;4995630;28;20210;-65
2023/08/09 00:09:36;;;;;;;2.40;1.10;;;17.60;99.90;;;;;;4995364;28;20183;-65
2023/08/09 00:12:03;;;;;;;1.65;1.20;;;17.60;99.90;;;;;;4991360;28;20188;-65
2023/08/09 00:14:31;;;;;;;1.85;1.13;;;17.60;99.90;;;;;;4995696;28;20199;-66
2023/08/09 00:16:57;;;;;;;2.22;1.40;;;17.60;99.90;;;;;;4982706;28;20226;-66
2023/08/09 00:19:24;;;;;;;1.30;1.20;;;17.60;99.90;;;;;;4986507;28;20206;-65
2023/08/09 00:21:50;;;;;;;1.42;1.15;;;17.60;99.90;;;;;;4991553;28;20211;-65
2023/08/09 00:24:16;;;;;;;2.00;1.45;;;17.60;99.90;;;;;;4989333;28;20184;-65
2023/08/09 00:26:42;;;;;;;1.30;1.10;;;17.60;99.90;;;;;;4990496;28;20180;-65
2023/08/09 00:29:07;;;;;;;2.08;1.08;;;17.50;99.90;;;;;;4988639;28;20263;-66
2023/08/09 00:31:33;;;;;;;1.50;1.20;;;17.60;99.90;;;;;;4991239;28;20447;-66
2023/08/09 00:33:59;;;;;;;1.10;1.00;;;17.60;99.90;;;;;;4994997;28;20171;-66
2023/08/09 00:36:27;;;;;;;1.15;1.00;;;17.60;99.90;;;;;;4988886;28;20372;-65
2023/08/09 00:38:55;;;;;;;1.27;1.10;;;17.60;99.90;;;;;;4979459;28;20271;-66
2023/08/09 00:41:21;;;;;;;2.45;1.40;;;17.60;99.90;;;;;;4992898;28;20190;-65
2023/08/09 00:43:49;;;;;;;2.30;1.30;;;17.60;99.90;;;;;;4993753;28;20203;-66
2023/08/09 00:46:14;;;;;;;1.92;1.23;;;17.60;99.90;;;;;;4994801;28;20171;-65
2023/08/09 00:48:42;;;;;;;1.73;1.20;;;17.60;99.90;;;;;;5033098;23;20244;-65
2023/08/09 00:51:09;;;;;;;1.45;1.23;;;17.60;99.90;;;;;;4990811;28;20207;-65
2023/08/09 00:53:36;;;;;;;1.88;1.17;;;17.60;99.90;;;;;;4984884;28;20191;-66
2023/08/09 00:56:02;;;;;;;1.35;0.90;;;17.60;99.90;;;;;;4994067;28;20210;-66
2023/08/09 00:58:30;;;;;;;1.95;1.10;;;17.60;99.90;;;;;;5011064;28;20218;-66
2023/08/09 01:00:58;;;;;;;1.20;1.10;;;17.60;99.90;;;;;;4991080;28;20180;-66
2023/08/09 01:03:26;;;;;;;2.75;1.15;;;17.60;99.90;;;;;;4994474;28;20175;-66
2023/08/09 01:06:16;;;;;;;1.77;1.30;;;17.60;99.90;;;;;;4994320;28;20222;-65
2023/08/09 01:08:57;;;;;;;1.70;1.08;;;17.70;99.90;;;;;;4987959;28;20187;-65
2023/08/09 01:11:52;;;;;;;2.58;1.27;;;17.70;99.90;;;;;;4994626;28;20187;-65
2023/08/09 01:14:22;;;;;;;1.85;1.10;;;17.70;99.90;;;;;;4994629;28;20190;-65
2023/08/09 01:16:51;;;;;;;1.60;1.30;;;17.70;99.90;;;;;;4995296;28;20278;-64
2023/08/09 01:19:34;;;;;;;1.30;1.20;;;17.70;99.90;;;;;;4994347;28;20199;-65
2023/08/09 01:22:06;;;;;;;2.03;1.25;;;17.70;99.90;;;;;;4995420;28;20249;-64
2023/08/09 01:24:34;;;;;;;1.40;1.30;;;17.70;99.90;;;;;;5001031;28;20273;-64
2023/08/09 01:27:00;;;;;;;1.63;1.20;;;17.70;99.90;;;;;;4994687;28;20345;-63
2023/08/09 01:29:28;;;;;;;1.50;1.23;;;17.70;99.90;;;;;;4990681;28;20274;-65
2023/08/09 01:31:53;;;;;;;1.33;1.10;;;17.70;99.90;;;;;;4997710;28;20226;-64
2023/08/09 01:34:22;;;;;;;1.23;1.13;;;17.70;99.90;;;;;;4988313;28;20184;-64
2023/08/09 01:36:51;;;;;;;1.40;1.08;;;17.60;99.90;;;;;;4993864;28;20210;-64
2023/08/09 01:39:22;;;;;;;1.50;1.10;;;17.60;99.90;;;;;;5007135;28;20204;-64
2023/08/09 01:41:49;;;;;;;1.38;1.08;;;17.60;99.90;;;;;;5006076;28;20238;-64
2023/08/09 01:44:18;;;;;;;1.60;0.90;;;17.60;99.90;;;;;;4994048;28;20186;-64
2023/08/09 01:46:47;;;;;;;2.80;1.10;;;17.60;99.90;;;;;;5007658;28;20199;-64
2023/08/09 01:49:15;;;;;;;1.02;0.80;;;17.60;99.90;;;;;;5008425;28;20191;-64
2023/08/09 01:51:41;;;;;;;1.30;1.00;;;17.60;99.90;;;;;;4993606;28;20206;-64
2023/08/09 01:54:08;;;;;;;0.90;0.80;;;17.60;99.90;;;;;;4993852;28;20254;-63
2023/08/09 01:56:35;;;;;;;1.08;0.88;;;17.60;99.90;;;;;;4998570;28;20187;-64
2023/08/09 01:59:01;;;;;;;1.52;0.85;;;17.60;99.90;;;;;;5006319;28;20270;-64
2023/08/09 02:01:29;;;;;;;1.10;1.00;;;17.60;99.90;;;;;;4990486;28;20272;-64
2023/08/09 02:03:57;;;;;;;1.15;1.00;;;17.60;99.90;;;;;;5001106;28;20191;-64
2023/08/09 02:06:22;;;;;;;1.25;0.80;;;17.70;99.90;;;;;;4993981;28;20171;-64
2023/08/09 02:08:50;;;;;;;3.30;1.80;;;17.60;99.90;;;;;;4990757;28;20179;-64
2023/08/09 02:11:18;;;;;;;1.98;1.50;;;17.70;99.90;;;;;;5010024;28;20179;-64
2023/08/09 02:13:44;;;;;;;1.88;1.23;;;17.70;99.90;;;;;;4976308;28;20172;-64
2023/08/09 02:16:09;;;;;;;1.83;1.05;;;17.70;99.90;;;;;;4990771;28;20287;-64
2023/08/09 02:18:35;;;;;;;1.58;1.00;;;17.70;99.90;;;;;;5009567;28;20195;-64
2023/08/09 02:21:02;;;;;;;1.58;0.90;;;17.70;99.90;;;;;;5004602;28;20233;-64
2023/08/09 02:23:30;;;;;;;1.15;0.85;;;17.70;99.90;;;;;;4995671;28;20204;-64
2023/08/09 02:25:56;;;;;;;1.20;0.90;;;17.60;99.90;;;;;;5019544;28;20347;-64
2023/08/09 02:28:22;;;;;;;1.40;0.90;;;17.60;99.90;;;;;;5013366;28;20452;-65
2023/08/09 02:30:49;;;;;;;1.15;0.80;;;17.60;99.90;;;;;;4992622;28;20275;-65
2023/08/09 02:33:15;;;;;;;0.98;0.82;;;17.60;99.90;;;;;;4994123;28;20183;-65
2023/08/09 02:35:53;;;;;;;1.33;0.80;;;17.60;99.90;;;;;;4996703;28;20330;-64
2023/08/09 02:38:19;;;;;;;0.95;0.85;;;17.60;99.90;;;;;;5009816;28;20252;-65
2023/08/09 02:40:49;;;;;;;2.05;0.98;;;17.60;99.90;;;;;;5008799;28;20179;-65
2023/08/09 02:43:16;;;;;;;0.98;0.85;;;17.60;99.90;;;;;;4996753;28;20179;-65
2023/08/09 02:45:43;;;;;;;1.80;1.20;;;17.50;99.90;;;;;;4996610;28;20183;-64
2023/08/09 02:48:17;;;;;;;1.20;0.88;;;17.60;99.90;;;;;;5012382;28;20191;-64
2023/08/09 02:50:45;;;;;;;1.27;1.00;;;17.60;99.90;;;;;;4994208;28;20309;-65
2023/08/09 02:53:11;;;;;;;1.10;1.00;;;17.60;99.90;;;;;;5000714;28;20266;-65
2023/08/09 02:55:42;;;;;;;1.70;0.90;;;17.60;99.90;;;;;;5013062;28;20183;-65
2023/08/09 02:58:12;;;;;;;1.45;1.10;;;17.60;99.90;;;;;;4996533;28;20277;-65
2023/08/09 03:00:41;;;;;;;1.25;1.00;;;17.60;99.90;;;;;;4988451;28;20172;-65
2023/08/09 03:03:07;;;;;;;2.53;1.20;;;17.60;99.90;;;;;;5004610;28;20266;-65
2023/08/09 03:05:32;;;;;;;1.75;1.40;;;17.60;99.90;;;;;;4991540;28;20271;-65
2023/08/09 03:07:59;;;;;;;1.50;1.20;;;17.60;99.90;;;;;;5007465;28;20194;-66
2023/08/09 03:10:26;;;;;;;1.98;1.33;;;17.60;99.90;;;;;;5012872;28;20292;-66
2023/08/09 03:12:52;;;;;;;2.35;1.17;;;17.50;99.90;;;;;;5013135;28;20193;-65
2023/08/09 03:15:18;;;;;;;1.98;1.23;;;17.50;99.90;;;;;;5012524;28;20245;-65
2023/08/09 03:17:46;;;;;;;2.22;1.35;;;17.40;99.90;;;;;;5012416;28;20199;-65
2023/08/09 03:20:14;;;;;;;1.38;1.27;;;17.30;99.90;;;;;;4996828;28;20375;-65
2023/08/09 03:22:42;;;;;;;1.75;1.30;;;17.20;99.90;;;;;;4996333;28;20210;-65
2023/08/09 03:25:09;;;;;;;1.58;1.23;;;17.10;99.90;;;;;;5012419;28;20211;-65
2023/08/09 03:27:37;;;;;;;1.60;1.42;;;17.00;99.90;;;;;;5011428;28;20238;-66
2023/08/09 03:30:08;;;;;;;1.52;1.30;;;16.90;99.90;;;;;;4994918;28;20337;-65
2023/08/09 03:32:34;;;;;;;1.50;1.30;;;16.90;99.90;;;;;;5012218;28;20419;-65
2023/08/09 03:35:00;;;;;;;1.85;1.42;;;16.80;99.90;;;;;;5009838;28;20186;-66
2023/08/09 03:37:28;;;;;;;1.52;1.30;;;16.70;99.90;;;;;;4992206;28;20221;-65
2023/08/09 03:39:55;;;;;;;1.38;1.27;;;16.70;99.90;;;;;;4995401;28;20176;-65
2023/08/09 03:42:21;;;;;;;1.42;1.33;;;16.60;99.90;;;;;;4996607;28;20183;-65
2023/08/09 03:44:47;;;;;;;1.58;1.48;;;16.60;99.90;;;;;;4992567;28;20184;-65
2023/08/09 03:47:13;;;;;;;1.50;1.40;;;16.50;99.90;;;;;;5012372;28;20199;-65
2023/08/09 03:49:38;;;;;;;2.03;1.45;;;16.40;99.90;;;;;;5008225;28;20183;-64
2023/08/09 03:52:06;;;;;;;3.15;2.60;;;16.40;99.90;;;;;;4999944;28;20186;-65
2023/08/09 03:54:35;;;;;;;2.22;2.03;;;16.40;99.90;;;;;;4999806;28;20209;-65
2023/08/09 03:57:01;;;;;;;2.38;1.85;;;16.30;99.90;;;;;;5008845;28;20196;-65
2023/08/09 03:59:29;;;;;;;1.90;1.80;;;16.30;99.90;;;;;;5009551;28;20187;-65
2023/08/09 04:01:54;;;;;;;2.33;1.92;;;16.30;99.90;;;;;;5007406;28;20203;-65
2023/08/09 04:04:20;;;;;;;2.30;2.03;;;16.30;99.90;;;;;;4995745;28;20210;-65
2023/08/09 04:06:45;;;;;;;2.85;2.55;;;16.20;99.90;;;;;;4994055;28;20184;-65
2023/08/09 04:09:13;;;;;;;2.60;2.08;;;16.20;99.90;;;;;;5008972;28;20312;-65
2023/08/09 04:11:41;;;;;;;2.53;2.00;;;16.20;99.90;;;;;;4992978;28;20183;-65
2023/08/09 04:14:08;;;;;;;2.28;1.88;;;16.20;99.90;;;;;;5009701;28;20175;-65
2023/08/09 04:16:34;;;;;;;2.30;2.10;;;16.20;99.90;;;;;;4991582;28;20203;-65
2023/08/09 04:19:00;;;;;;;2.05;1.83;;;16.20;99.90;;;;;;4995717;28;20187;-65
2023/08/09 04:21:30;;;;;;;2.15;1.95;;;16.20;99.90;;;;;;5011422;28;20262;-65
2023/08/09 04:23:56;;;;;;;2.30;2.05;;;16.20;99.90;;;;;;4988297;28;20176;-65
2023/08/09 04:26:24;;;;;;;23.55;19.55;;;16.20;99.90;;;;;;4994832;28;20175;-65
2023/08/09 04:28:49;;;;;;;14.25;12.15;;;16.20;99.90;;;;;;4999605;28;20180;-65
2023/08/09 04:31:17;;;;;;;8.32;7.20;;;16.30;99.90;;;;;;4976995;28;20183;-65
2023/08/09 04:33:49;;;;;;;6.55;5.07;;;16.30;99.90;;;;;;5011929;28;20191;-65
2023/08/09 04:36:17;;;;;;;5.18;3.95;;;16.30;99.90;;;;;;5001449;28;20198;-65
2023/08/09 04:38:43;;;;;;;3.42;3.13;;;16.30;99.90;;;;;;4994017;28;20206;-65
2023/08/09 04:41:14;;;;;;;3.05;2.75;;;16.40;99.90;;;;;;4995279;28;20179;-65
2023/08/09 04:43:44;;;;;;;4.25;2.90;;;16.40;99.90;;;;;;4994950;28;20243;-65
2023/08/09 04:46:13;;;;;;;3.75;2.70;;;16.40;99.90;;;;;;4993505;28;20176;-65
2023/08/09 04:48:42;;;;;;;2.78;2.50;;;16.40;99.90;;;;;;5005251;28;20477;-65
2023/08/09 04:51:10;;;;;;;3.35;3.03;;;16.40;99.90;;;;;;4985067;28;20226;-66
2023/08/09 04:53:39;;;;;;;3.00;2.70;;;16.40;99.90;;;;;;5008011;28;20414;-66
2023/08/09 04:56:07;;;;;;;2.80;2.50;;;16.40;99.90;;;;;;4994454;28;20214;-66
2023/08/09 04:58:36;;;;;;;2.47;2.28;;;16.40;99.90;;;;;;5010706;28;20211;-66
2023/08/09 05:01:04;;;;;;;2.55;2.05;;;16.50;99.90;;;;;;4992183;28;20246;-66
2023/08/09 05:03:33;;;;;;;2.30;2.08;;;16.50;99.90;;;;;;4995169;28;20191;-68
2023/08/09 05:06:02;;;;;;;2.28;1.95;;;16.50;99.90;;;;;;4994185;28;20198;-65
2023/08/09 05:08:31;;;;;;;2.30;1.90;;;16.50;99.90;;;;;;4992203;28;20258;-66
2023/08/09 05:10:59;;;;;;;2.25;2.03;;;16.50;99.90;;;;;;5003485;28;20186;-66
2023/08/09 05:13:27;;;;;;;2.58;2.35;;;16.50;99.90;;;;;;5008190;28;20254;-66
2023/08/09 05:15:52;;;;;;;1.98;1.80;;;16.50;99.90;;;;;;4995404;28;20270;-66
2023/08/09 05:18:18;;;;;;;1.92;1.77;;;16.50;99.90;;;;;;4991739;28;20306;-65
2023/08/09 05:20:43;;;;;;;2.53;2.20;;;16.50;99.90;;;;;;4993460;28;20184;-65
2023/08/09 05:23:14;;;;;;;2.92;1.90;;;16.50;99.90;;;;;;4995097;28;20206;-66
2023/08/09 05:25:42;;;;;;;2.38;1.70;;;16.60;99.90;;;;;;4994660;28;20179;-66
2023/08/09 05:28:07;;;;;;;1.75;1.60;;;16.60;99.90;;;;;;4983635;28;20338;-65
2023/08/09 05:30:33;;;;;;;2.95;2.00;;;16.60;99.90;;;;;;4994235;28;20501;-65
2023/08/09 05:32:59;;;;;;;2.60;1.88;;;16.60;99.90;;;;;;4995087;28;20210;-66
2023/08/09 05:35:27;;;;;;;2.90;2.00;;;16.60;99.90;;;;;;4991646;28;20194;-65
2023/08/09 05:37:53;;;;;;;2.10;1.90;;;16.60;99.90;;;;;;5010205;28;20267;-66
2023/08/09 05:40:21;;;;;;;2.53;2.10;;;16.70;99.90;;;;;;4993214;28;20218;-66
2023/08/09 05:42:47;;;;;;;2.03;1.83;;;16.70;99.90;;;;;;4994697;28;20181;-64
2023/08/09 05:45:12;;;;;;;2.38;1.67;;;16.60;99.90;;;;;;4995288;28;20267;-64
2023/08/09 05:47:40;;;;;;;2.38;2.00;;;16.60;99.90;;;;;;4982273;28;20225;-63
2023/08/09 05:50:09;;;;;;;2.22;2.03;;;16.70;99.90;;;;;;4991165;28;20278;-66
2023/08/09 05:52:36;;;;;;;2.85;1.80;;;16.70;99.90;;;;;;4993926;28;20179;-66
2023/08/09 05:55:03;;;;;;;1.70;1.60;;;16.70;99.90;;;;;;4994916;28;20203;-65
2023/08/09 05:57:28;;;;;;;2.00;1.60;;;16.70;99.90;;;;;;4990591;28;20191;-66
2023/08/09 05:59:54;;;;;;;2.03;1.80;;;16.70;99.90;;;;;;4979299;28;20234;-65
2023/08/09 06:02:22;;;;;;;2.33;1.42;;;16.70;99.90;;;;;;4995056;28;20214;-65
2023/08/09 06:04:50;;;;;;;1.70;1.60;;;16.70;99.90;;;;;;4987679;28;20258;-66
2023/08/09 06:07:17;;;;;;;2.20;1.60;;;16.80;99.90;;;;;;4992239;28;20187;-66
2023/08/09 06:09:43;;;;;;;1.70;1.60;;;16.80;99.90;;;;;;4994158;28;20206;-65
2023/08/09 06:12:08;;;;;;;2.65;1.58;;;16.80;99.90;;;;;;4985177;28;20195;-66
2023/08/09 06:14:34;;;;;;;1.85;1.45;;;16.80;99.90;;;;;;4994193;28;20190;-64
2023/08/09 06:17:02;;;;;;;2.00;1.73;;;16.90;99.90;;;;;;4993936;28;20294;-66
2023/08/09 06:19:30;;;;;;;2.30;1.70;;;16.90;99.90;;;;;;4994379;28;20331;-66
2023/08/09 06:21:55;;;;;;;2.97;1.73;;;17.00;99.90;;;;;;4990353;28;20168;-66
2023/08/09 06:24:21;;;;;;;3.53;1.80;;;16.90;99.90;;;;;;4986020;28;20182;-65
2023/08/09 06:26:46;;;;;;;1.90;1.40;;;16.90;99.90;;;;;;4991480;28;20283;-64
2023/08/09 06:29:15;;;;;;;1.90;1.70;;;16.90;99.90;;;;;;4993685;28;20179;-64
2023/08/09 06:31:44;;;;;;;1.92;1.73;;;16.90;99.90;;;;;;4994172;28;20210;-64
2023/08/09 06:34:12;;;;;;;1.92;1.40;;;16.90;99.90;;;;;;4994596;28;20262;-64
2023/08/09 06:36:38;;;;;;;1.83;1.52;;;16.90;99.90;;;;;;4993718;28;20202;-63
2023/08/09 06:39:03;;;;;;;1.75;1.63;;;16.90;99.90;;;;;;4994208;28;20425;-64
2023/08/09 06:41:29;;;;;;;1.92;1.70;;;16.90;99.90;;;;;;4993632;28;20198;-64
2023/08/09 06:43:57;;;;;;;2.35;1.98;;;16.90;99.90;;;;;;4994112;28;20190;-64
2023/08/09 06:46:22;;;;;;;2.00;1.80;;;16.90;99.90;;;;;;4993529;28;20179;-64
2023/08/09 06:48:48;;;;;;;1.80;1.60;;;16.90;99.90;;;;;;4992602;28;20218;-65
2023/08/09 06:51:15;;;;;;;2.00;1.80;;;16.90;99.90;;;;;;4994019;28;20202;-64
2023/08/09 06:53:42;;;;;;;2.10;1.90;;;16.90;99.90;;;;;;4993805;28;20183;-64
2023/08/09 06:56:09;;;;;;;2.50;2.00;;;16.90;99.90;;;;;;4993798;28;20184;-64
2023/08/09 06:58:34;;;;;;;2.28;1.92;;;17.00;99.90;;;;;;4994304;28;20249;-64
2023/08/09 07:01:02;;;;;;;3.33;2.80;;;17.00;99.90;;;;;;4992727;28;20175;-65
2023/08/09 07:03:28;;;;;;;2.40;2.10;;;17.00;99.90;;;;;;4992970;28;20185;-64
2023/08/09 07:05:54;;;;;;;2.40;2.20;;;17.10;99.90;;;;;;4993394;28;20233;-63
2023/08/09 07:08:21;;;;;;;4.25;1.80;;;17.20;99.90;;;;;;4995706;28;20203;-64
2023/08/09 07:10:47;;;;;;;2.00;1.90;;;17.20;99.90;;;;;;4996845;28;20198;-64
2023/08/09 07:13:12;;;;;;;2.00;1.85;;;17.20;99.90;;;;;;4997755;28;20175;-65
2023/08/09 07:15:39;;;;;;;2.00;1.80;;;17.20;99.90;;;;;;4997186;28;20245;-65
2023/08/09 07:18:05;;;;;;;5.20;1.90;;;17.30;99.90;;;;;;5010422;28;20204;-64
2023/08/09 07:20:30;;;;;;;3.22;1.90;;;17.30;99.90;;;;;;4994339;28;20183;-65
2023/08/09 07:22:58;;;;;;;2.10;1.80;;;17.30;99.90;;;;;;4996569;28;20175;-64
2023/08/09 07:25:24;;;;;;;2.33;2.03;;;17.40;99.90;;;;;;4993654;28;20222;-66
2023/08/09 07:27:50;;;;;;;2.20;2.00;;;17.50;99.90;;;;;;4979341;28;20180;-66
2023/08/09 07:30:16;;;;;;;2.45;1.98;;;17.50;99.90;;;;;;4994381;28;20191;-65
2023/08/09 07:32:43;;;;;;;2.35;1.83;;;17.60;99.90;;;;;;4996375;28;20334;-65
2023/08/09 07:35:09;;;;;;;2.03;1.80;;;17.60;99.90;;;;;;5013475;28;20192;-65
2023/08/09 07:37:40;;;;;;;5.85;1.95;;;17.70;99.90;;;;;;5013437;28;20199;-64
2023/08/09 07:40:12;;;;;;;2.15;1.80;;;17.70;99.90;;;;;;4996421;28;20254;-65
2023/08/09 07:42:41;;;;;;;2.17;1.98;;;17.80;99.90;;;;;;4994959;28;20195;-65
2023/08/09 07:45:08;;;;;;;2.13;1.92;;;17.80;99.90;;;;;;5012817;28;20176;-65
2023/08/09 07:47:36;;;;;;;2.95;1.90;;;17.90;99.90;;;;;;5013123;28;20214;-64
2023/08/09 07:50:01;;;;;;;2.78;2.20;;;17.90;99.90;;;;;;5004366;28;20210;-64
2023/08/09 07:52:30;;;;;;;1.90;1.73;;;17.90;99.90;;;;;;5012843;28;20253;-65
2023/08/09 07:54:59;;;;;;;2.22;2.03;;;17.90;99.90;;;;;;4995361;28;20227;-65
2023/08/09 07:57:24;;;;;;;2.28;2.03;;;18.00;99.90;;;;;;4987753;28;20200;-65
2023/08/09 07:59:50;;;;;;;2.20;2.00;;;18.00;99.90;;;;;;4993661;28;20197;-65
2023/08/09 08:02:18;;;;;;;2.10;1.90;;;18.10;99.90;;;;;;4996352;28;20196;-65
2023/08/09 08:04:46;;;;;;;2.10;1.90;;;18.10;99.90;;;;;;4992940;28;20212;-65
2023/08/09 08:07:13;;;;;;;2.90;1.70;;;18.10;99.90;;;;;;4983018;28;20183;-65
2023/08/09 08:09:42;;;;;;;2.25;2.03;;;18.10;99.90;;;;;;4996207;28;20218;-65
2023/08/09 08:12:08;;;;;;;2.60;2.17;;;18.20;99.90;;;;;;4995765;28;20188;-65
2023/08/09 08:14:37;;;;;;;2.17;1.90;;;18.20;99.90;;;;;;5005211;28;20180;-65
2023/08/09 08:17:03;;;;;;;2.30;2.03;;;18.30;99.90;;;;;;4993433;28;20227;-65
2023/08/09 08:19:28;;;;;;;1.92;1.60;;;18.30;99.90;;;;;;5010264;28;20184;-65
2023/08/09 08:21:54;;;;;;;1.70;1.60;;;18.40;99.90;;;;;;4996167;28;20195;-65
2023/08/09 08:24:20;;;;;;;1.80;1.60;;;18.40;99.90;;;;;;4992666;28;20473;-66
2023/08/09 08:26:45;;;;;;;1.70;1.50;;;18.50;99.90;;;;;;4989792;28;20187;-65
2023/08/09 08:29:11;;;;;;;2.00;1.73;;;18.60;99.90;;;;;;4988199;28;20203;-65
2023/08/09 08:31:36;;;;;;;1.90;1.70;;;18.60;99.90;;;;;;4980957;28;20195;-65
2023/08/09 08:34:05;;;;;;;1.92;1.65;;;18.70;99.90;;;;;;4996100;28;20179;-65
2023/08/09 08:36:30;;;;;;;1.88;1.42;;;18.80;99.90;;;;;;4995246;28;20183;-66
2023/08/09 08:38:57;;;;;;;3.13;1.52;;;18.80;99.90;;;;;;4990726;28;20246;-64
2023/08/09 08:41:23;;;;;;;2.70;1.75;;;18.90;99.90;;;;;;4992047;28;20176;-64
2023/08/09 08:43:49;;;;;;;2.28;1.70;;;18.90;99.90;;;;;;4985204;28;20176;-64
2023/08/09 08:46:18;;;;;;;1.85;1.58;;;19.00;99.90;;;;;;5006960;28;20429;-65
2023/08/09 08:48:48;;;;;;;1.95;1.42;;;19.00;99.90;;;;;;4995169;28;20194;-64
2023/08/09 08:51:17;;;;;;;2.05;1.50;;;19.10;99.90;;;;;;4995307;28;20202;-64
2023/08/09 08:53:43;;;;;;;1.70;1.45;;;19.10;99.90;;;;;;4995135;28;20199;-64
2023/08/09 08:56:14;;;;;;;1.52;1.23;;;19.20;99.90;;;;;;4981629;28;20215;-64
2023/08/09 08:58:40;;;;;;;1.40;1.30;;;19.20;99.90;;;;;;4987710;28;20191;-64
2023/08/09 09:01:09;;;;;;;2.50;1.40;;;19.20;99.90;;;;;;5002692;28;20198;-64
2023/08/09 09:03:35;;;;;;;1.50;1.25;;;19.30;99.90;;;;;;4992637;28;20172;-63
2023/08/09 09:06:01;;;;;;;2.03;1.38;;;19.30;99.90;;;;;;4994722;28;20171;-64
2023/08/09 09:08:29;;;;;;;1.58;1.25;;;19.40;99.90;;;;;;4978296;28;20203;-65
2023/08/09 09:10:54;;;;;;;1.40;1.30;;;19.40;99.90;;;;;;5011585;28;20174;-65
2023/08/09 09:13:28;;;;;;;1.55;1.35;;;19.50;99.90;;;;;;5011566;28;20186;-65
2023/08/09 09:15:54;;;;;;;1.55;1.45;;;19.60;99.90;;;;;;4994846;28;20210;-65
2023/08/09 09:18:25;;;;;;;1.30;1.10;;;19.60;99.90;;;;;;4995661;28;20210;-65
2023/08/09 09:20:55;;;;;;;1.85;1.40;;;19.60;99.90;;;;;;4991411;28;20180;-65
2023/08/09 09:23:28;;;;;;;1.30;1.20;;;19.70;99.90;;;;;;4993505;28;20235;-65
2023/08/09 09:26:19;;;;;;;1.80;1.33;;;19.80;99.90;;;;;;4995538;28;20164;-65
2023/08/09 09:28:50;;;;;;;1.95;1.30;;;19.90;99.90;;;;;;4994917;28;20186;-65
2023/08/09 09:31:21;;;;;;;1.50;1.25;;;19.90;99.90;;;;;;4995184;28;20250;-74
2023/08/09 09:33:51;;;;;;;1.63;1.38;;;20.10;99.90;;;;;;4994697;28;20183;-72
2023/08/09 09:36:18;;;;;;;1.73;1.42;;;20.20;99.90;;;;;;4991244;28;20263;-73
2023/08/09 09:38:50;;;;;;;2.60;1.40;;;20.30;99.90;;;;;;4988297;28;20279;-74
2023/08/09 09:41:18;;;;;;;1.60;1.38;;;20.30;99.90;;;;;;4988463;28;20410;-75
2023/08/09 09:43:50;;;;;;;1.90;1.70;;;20.40;99.90;;;;;;4994636;28;20175;-74
2023/08/09 09:46:25;;;;;;;1.95;1.60;;;20.50;99.90;;;;;;5000596;28;20196;-74
2023/08/09 09:49:05;;;;;;;1.75;1.48;;;20.50;99.90;;;;;;4987438;28;20277;-74
2023/08/09 09:51:30;;;;;;;1.75;1.55;;;20.50;99.90;;;;;;4991629;28;20215;-75
2023/08/09 09:53:56;;;;;;;2.28;1.50;;;20.50;99.90;;;;;;4981750;28;20234;-73
2023/08/09 09:56:25;;;;;;;1.88;1.40;;;20.60;99.90;;;;;;4996650;28;20191;-75
2023/08/09 09:58:51;;;;;;;1.50;1.40;;;20.60;99.90;;;;;;4994433;28;20230;-74
2023/08/09 10:01:26;;;;;;;1.70;1.48;;;20.60;99.90;;;;;;5011220;28;20203;-74
2023/08/09 10:04:07;;;;;;;2.42;1.40;;;20.60;99.90;;;;;;4995401;28;20172;-73
2023/08/09 10:06:39;;;;;;;2.10;1.60;;;20.60;99.90;;;;;;4993719;28;20205;-75
2023/08/09 10:09:09;;;;;;;1.80;1.40;;;20.70;99.90;;;;;;5002198;28;20191;-75
2023/08/09 10:11:36;;;;;;;2.30;1.27;;;20.70;99.90;;;;;;4995094;28;20337;-73
2023/08/09 10:14:04;;;;;;;3.03;1.70;;;20.80;99.90;;;;;;4994425;28;20190;-75
2023/08/09 10:16:32;;;;;;;2.20;1.60;;;20.90;99.90;;;;;;4986382;28;20223;-74
2023/08/09 10:19:10;;;;;;;1.95;1.75;;;21.00;99.90;;;;;;4986188;28;20282;-75
2023/08/09 10:21:41;;;;;;;2.45;1.70;;;21.20;99.90;;;;;;4975434;28;20172;-76
2023/08/09 10:24:09;;;;;;;2.63;1.70;;;21.30;99.90;;;;;;4983184;28;20211;-76
2023/08/09 10:26:40;;;;;;;1.70;1.48;;;21.60;99.90;;;;;;4982732;28;20180;-73
2023/08/09 10:29:12;;;;;;;1.45;1.35;;;22.00;99.90;;;;;;4975807;28;20271;-76
2023/08/09 10:32:04;;;;;;;3.38;2.80;;;22.50;99.90;;;;;;4992673;28;20206;-75
2023/08/09 10:34:40;;;;;;;3.72;2.83;;;23.00;99.90;;;;;;4994246;28;20219;-76
2023/08/09 10:37:10;;;;;;;2.90;2.30;;;23.50;99.90;;;;;;4994057;28;20179;-76
2023/08/09 10:39:37;;;;;;;2.35;2.00;;;23.90;99.90;;;;;;4994228;28;20219;-74
2023/08/09 10:42:08;;;;;;;2.00;1.80;;;24.10;99.90;;;;;;4994087;28;20207;-75
2023/08/09 10:44:40;;;;;;;2.45;2.10;;;24.20;99.90;;;;;;4997390;28;20257;-75
2023/08/09 10:47:20;;;;;;;2.88;1.77;;;24.30;99.90;;;;;;4997778;28;20265;-75
2023/08/09 10:49:51;;;;;;;2.00;1.75;;;24.30;99.90;;;;;;4998050;28;20427;-73
2023/08/09 10:52:21;;;;;;;1.70;1.60;;;24.20;99.90;;;;;;4997976;28;20179;-76
2023/08/09 10:54:49;;;;;;;2.58;1.80;;;24.10;99.90;;;;;;5013858;28;20179;-75
2023/08/09 10:57:16;;;;;;;2.00;1.80;;;24.10;99.90;;;;;;4997702;28;20223;-75
2023/08/09 10:59:46;;;;;;;2.20;2.00;;;24.00;99.90;;;;;;4994412;28;20212;-74
2023/08/09 11:02:18;;;;;;;2.10;1.90;;;23.90;99.90;;;;;;5010600;28;20245;-71
2023/08/09 11:04:46;;;;;;;2.92;2.10;;;23.90;99.90;;;;;;4997785;28;20282;-74
2023/08/09 11:07:21;;;;;;;1.88;1.77;;;23.90;99.90;;;;;;4997369;28;20187;-75
2023/08/09 11:09:46;;;;;;;2.22;2.03;;;24.00;99.90;;;;;;4997590;28;20229;-76
2023/08/09 11:12:14;;;;;;;2.58;2.33;;;24.10;99.90;;;;;;4997398;28;20176;-71
2023/08/09 11:14:40;;;;;;;2.40;2.20;;;24.20;99.90;;;;;;4997429;28;20179;-76
2023/08/09 11:17:12;;;;;;;2.50;2.30;;;24.30;99.90;;;;;;4997019;28;20320;-76
2023/08/09 11:19:37;;;;;;;2.58;2.38;;;24.40;99.90;;;;;;4990117;28;20184;-73
2023/08/09 11:22:08;;;;;;;3.97;2.33;;;24.50;99.90;;;;;;5004498;28;20221;-76
2023/08/09 11:24:34;;;;;;;2.53;2.30;;;24.60;99.90;;;;;;5000879;28;20175;-73
2023/08/09 11:27:03;;;;;;;2.75;2.17;;;24.70;99.90;;;;;;4997142;28;20191;-75
2023/08/09 11:29:28;;;;;;;2.40;2.20;;;24.80;99.90;;;;;;4997488;28;20171;-74
2023/08/09 11:31:58;;;;;;;2.47;2.22;;;24.90;99.90;;;;;;4996766;28;20179;-75
2023/08/09 11:34:25;;;;;;;3.00;2.70;;;24.90;99.90;;;;;;4997013;28;20168;-75
2023/08/09 11:36:56;;;;;;;3.03;2.45;;;24.90;99.90;;;;;;4997129;28;20215;-76
2023/08/09 11:39:25;;;;;;;3.15;2.88;;;25.00;99.90;;;;;;5013627;28;20297;-75
2023/08/09 11:41:51;;;;;;;2.90;2.67;;;24.90;99.90;;;;;;5006871;28;20187;-77
2023/08/09 11:44:20;;;;;;;2.97;2.67;;;24.90;99.90;;;;;;4997362;28;20220;-72
2023/08/09 11:46:47;;;;;;;3.35;3.00;;;24.80;99.90;;;;;;5001312;28;20184;-76
2023/08/09 11:49:13;;;;;;;3.05;2.78;;;24.80;99.90;;;;;;5013368;28;20226;-74
2023/08/09 11:51:39;;;;;;;2.95;2.65;;;24.70;99.90;;;;;;4977513;28;20223;-75
2023/08/09 11:54:09;;;;;;;2.80;2.50;;;24.70;99.90;;;;;;4995385;28;20199;-75
2023/08/09 11:56:37;;;;;;;2.80;2.60;;;24.60;99.90;;;;;;4996489;28;20171;-76
2023/08/09 11:59:04;;;;;;;3.08;2.88;;;24.60;99.90;;;;;;4987956;28;20223;-74
2023/08/09 12:01:44;;;;;;;2.60;2.40;;;24.50;99.90;;;;;;4990449;28;20257;-73
2023/08/09 12:04:13;;;;;;;2.85;2.53;;;24.60;99.90;;;;;;5002953;28;20187;-73
2023/08/09 12:06:44;;;;;;;2.90;2.65;;;24.60;99.90;;;;;;4996139;28;20262;-71
2023/08/09 12:09:42;;;;;;;2.70;2.50;;;24.60;99.90;;;;;;4996719;28;20187;-72
2023/08/09 12:12:16;;;;;;;2.88;2.67;;;24.60;99.90;;;;;;4996059;28;20190;-74
2023/08/09 12:14:52;;;;;;;2.90;2.70;;;24.60;99.90;;;;;;4996131;28;20190;-74
2023/08/09 12:17:23;;;;;;;3.33;3.03;;;24.60;99.90;;;;;;5006588;28;20198;-74
2023/08/09 12:19:55;;;;;;;3.92;2.90;;;24.50;99.90;;;;;;4996332;28;20186;-75
2023/08/09 12:22:25;;;;;;;6.65;2.78;;;24.40;99.90;;;;;;4996325;28;20191;-75
2023/08/09 12:24:51;;;;;;;2.90;2.60;;;24.30;99.90;;;;;;4996192;28;20171;-74
2023/08/09 12:27:17;;;;;;;3.10;2.72;;;24.30;99.90;;;;;;4996359;28;20237;-74
2023/08/09 12:29:43;;;;;;;3.15;2.60;;;24.30;99.90;;;;;;4995886;28;20191;-74
2023/08/09 12:32:08;;;;;;;2.70;2.50;;;24.30;99.90;;;;;;4983255;28;20188;-74
2023/08/09 12:34:34;;;;;;;3.08;2.78;;;24.40;99.90;;;;;;4990102;28;20183;-73
2023/08/09 12:37:00;;;;;;;3.50;2.70;;;24.40;99.90;;;;;;5012097;28;20279;-74
2023/08/09 12:39:27;;;;;;;2.88;2.38;;;24.50;99.90;;;;;;4984020;28;20172;-73
2023/08/09 12:41:53;;;;;;;2.60;2.40;;;24.70;99.90;;;;;;4995684;28;20211;-73
2023/08/09 12:44:19;;;;;;;2.92;2.50;;;24.90;99.90;;;;;;4995478;28;20179;-74
2023/08/09 12:46:44;;;;;;;2.20;2.00;;;25.00;99.90;;;;;;4991794;28;20259;-73
2023/08/09 12:49:10;;;;;;;2.00;1.90;;;25.20;99.90;;;;;;5039126;23;20228;-72
2023/08/09 12:51:38;;;;;;;2.40;2.20;;;25.30;99.90;;;;;;4983181;28;20199;-75